createdAt,value
2018-02-01T00:01:46.279Z,51.00
2018-02-01T00:04:13.772Z,51.00
2018-02-01T00:06:41.242Z,50.30
2018-02-01T00:09:08.814Z,50.20
2018-02-01T00:11:36.277Z,50.20
2018-02-01T00:14:04.537Z,50.90
2018-02-01T00:16:32.013Z,50.80
2018-02-01T00:18:59.513Z,51.20
2018-02-01T00:21:27.790Z,51.30
2018-02-01T00:23:55.278Z,51.30
2018-02-01T00:26:22.743Z,51.30
2018-02-01T00:28:50.223Z,51.60
2018-02-01T00:31:17.688Z,51.80
2018-02-01T00:33:45.161Z,51.70
2018-02-01T00:36:12.640Z,51.70
2018-02-01T00:38:40.122Z,51.90
2018-02-01T00:41:07.586Z,52.00
2018-02-01T00:43:36.085Z,52.10
2018-02-01T00:46:04.338Z,52.30
2018-02-01T00:48:31.805Z,52.30
2018-02-01T00:50:59.257Z,52.50
2018-02-01T00:53:27.509Z,52.80
2018-02-01T00:55:54.996Z,52.80
2018-02-01T00:58:22.450Z,52.90
2018-02-01T01:00:49.979Z,53.00
2018-02-01T01:03:17.465Z,53.00
2018-02-01T01:05:44.968Z,53.00
2018-02-01T01:08:13.201Z,53.50
2018-02-01T01:10:41.430Z,53.60
2018-02-01T01:13:08.903Z,53.60
2018-02-01T01:15:36.409Z,53.90
2018-02-01T01:18:03.872Z,54.60
2018-02-01T01:20:31.373Z,54.90
2018-02-01T01:22:58.850Z,55.50
2018-02-01T01:25:26.318Z,56.00
2018-02-01T01:27:53.793Z,56.50
2018-02-01T01:30:21.386Z,56.50
2018-02-01T01:32:48.949Z,56.50
2018-02-01T01:35:16.432Z,56.80
2018-02-01T01:37:43.928Z,56.90
2018-02-01T01:40:12.168Z,56.80
2018-02-01T01:42:40.444Z,56.90
2018-02-01T01:45:07.916Z,56.80
2018-02-01T01:47:35.428Z,56.90
2018-02-01T01:50:02.904Z,57.00
2018-02-01T01:52:31.122Z,57.10
2018-02-01T01:54:58.595Z,57.10
2018-02-01T01:57:26.086Z,57.00
2018-02-01T01:59:53.552Z,57.10
2018-02-01T02:02:21.081Z,57.20
2018-02-01T02:04:48.557Z,57.10
2018-02-01T02:07:16.057Z,57.20
2018-02-01T02:09:43.584Z,57.30
2018-02-01T02:12:11.061Z,57.20
2018-02-01T02:14:39.282Z,57.40
2018-02-01T02:17:06.831Z,57.40
2018-02-01T02:19:34.296Z,57.80
2018-02-01T02:22:02.524Z,58.20
2018-02-01T02:24:30.767Z,58.50
2018-02-01T02:26:58.988Z,58.50
2018-02-01T02:29:26.482Z,58.50
2018-02-01T02:31:54.702Z,60.00
2018-02-01T02:34:22.190Z,59.90
2018-02-01T02:36:49.714Z,60.30
2018-02-01T02:39:18.177Z,61.00
2018-02-01T02:41:45.670Z,61.00
2018-02-01T02:44:13.140Z,61.30
2018-02-01T02:46:40.621Z,61.50
2018-02-01T02:49:08.858Z,61.90
2018-02-01T02:51:37.205Z,62.00
2018-02-01T02:56:42.919Z,62.30
2018-02-01T02:59:10.397Z,62.10
2018-02-01T03:01:37.890Z,62.00
2018-02-01T03:04:05.387Z,62.00
2018-02-01T03:06:33.606Z,62.70
2018-02-01T03:09:01.086Z,62.60
2018-02-01T03:11:28.568Z,63.00
2018-02-01T03:13:56.046Z,62.80
2018-02-01T03:16:23.510Z,63.40
2018-02-01T03:18:51.788Z,63.10
2018-02-01T03:21:19.300Z,63.00
2018-02-01T03:23:46.768Z,63.30
2018-02-01T03:26:15.023Z,63.80
2018-02-01T03:28:42.504Z,63.80
2018-02-01T03:31:09.995Z,64.00
2018-02-01T03:33:38.228Z,63.80
2018-02-01T03:36:06.479Z,63.70
2018-02-01T03:38:33.975Z,63.70
2018-02-01T03:41:01.445Z,63.40
2018-02-01T03:43:29.861Z,63.00
2018-02-01T03:45:57.392Z,63.00
2018-02-01T03:48:25.642Z,62.90
2018-02-01T03:50:53.122Z,62.90
2018-02-01T03:53:21.375Z,62.60
2018-02-01T03:55:49.624Z,62.30
2018-02-01T03:58:17.090Z,62.30
2018-02-01T04:00:44.589Z,62.00
2018-02-01T04:03:12.074Z,62.40
2018-02-01T04:05:39.548Z,62.60
2018-02-01T04:08:07.028Z,62.30
2018-02-01T04:10:34.486Z,62.50
2018-02-01T04:13:02.603Z,62.10
2018-02-01T04:15:30.072Z,61.60
2018-02-01T04:17:58.290Z,61.70
2018-02-01T04:20:25.780Z,61.90
2018-02-01T04:22:53.238Z,61.80
2018-02-01T04:25:20.760Z,62.00
2018-02-01T04:27:48.250Z,61.90
2018-02-01T04:30:15.736Z,62.00
2018-02-01T04:32:43.328Z,62.10
2018-02-01T04:35:10.800Z,62.10
2018-02-01T04:37:38.275Z,62.20
2018-02-01T04:40:05.774Z,62.00
2018-02-01T04:42:33.239Z,61.70
2018-02-01T04:45:00.704Z,62.00
2018-02-01T04:47:28.195Z,62.40
2018-02-01T04:49:55.674Z,62.00
2018-02-01T04:52:23.180Z,61.90
2018-02-01T04:54:50.661Z,61.80
2018-02-01T04:57:18.154Z,62.30
2018-02-01T04:59:45.641Z,62.20
2018-02-01T05:02:13.120Z,62.20
2018-02-01T05:04:40.597Z,62.00
2018-02-01T05:07:08.856Z,62.00
2018-02-01T05:09:37.083Z,62.20
2018-02-01T05:12:04.610Z,62.10
2018-02-01T05:14:32.848Z,62.30
2018-02-01T05:19:41.075Z,62.40
2018-02-01T05:22:08.541Z,63.00
2018-02-01T05:24:36.014Z,63.50
2018-02-01T05:27:03.499Z,63.90
2018-02-01T05:29:30.958Z,64.00
2018-02-01T05:31:58.591Z,64.40
2018-02-01T05:34:26.058Z,64.60
2018-02-01T05:36:53.527Z,65.00
2018-02-01T05:39:21.178Z,65.70
2018-02-01T05:41:48.654Z,65.80
2018-02-01T05:44:16.173Z,66.40
2018-02-01T05:46:43.673Z,67.10
2018-02-01T05:49:11.138Z,67.40
2018-02-01T05:51:38.616Z,67.90
2018-02-01T05:54:06.926Z,69.10
2018-02-01T05:56:34.417Z,69.20
2018-02-01T05:59:01.890Z,70.30
2018-02-01T06:01:29.413Z,71.10
2018-02-01T06:03:56.921Z,71.20
2018-02-01T06:06:24.399Z,71.30
2018-02-01T06:08:51.880Z,71.90
2018-02-01T06:11:19.488Z,71.90
2018-02-01T06:13:46.957Z,72.10
2018-02-01T06:16:14.436Z,72.40
2018-02-01T06:18:41.989Z,71.90
2018-02-01T06:21:09.534Z,72.00
2018-02-01T06:23:37.461Z,71.80
2018-02-01T06:26:05.020Z,72.10
2018-02-01T06:28:33.451Z,72.50
2018-02-01T06:31:01.013Z,72.60
2018-02-01T06:33:29.348Z,71.90
2018-02-01T06:35:56.854Z,72.30
2018-02-01T06:38:24.401Z,72.90
2018-02-01T06:40:51.887Z,72.20
2018-02-01T06:43:19.417Z,71.90
2018-02-01T06:45:46.939Z,72.70
2018-02-01T06:48:15.253Z,72.70
2018-02-01T06:50:42.740Z,72.80
2018-02-01T06:53:10.375Z,72.10
2018-02-01T06:55:38.218Z,72.10
2018-02-01T06:58:05.772Z,71.90
2018-02-01T07:00:39.834Z,72.30
2018-02-01T07:03:08.060Z,72.40
2018-02-01T07:05:36.562Z,72.40
2018-02-01T07:08:04.338Z,72.50
2018-02-01T07:10:31.878Z,72.50
2018-02-01T07:13:00.200Z,73.00
2018-02-01T07:15:27.785Z,73.00
2018-02-01T07:17:55.362Z,72.60
2018-02-01T07:20:23.693Z,71.80
2018-02-01T07:22:52.072Z,72.30
2018-02-01T07:25:20.404Z,71.60
2018-02-01T07:27:48.288Z,71.70
2018-02-01T07:30:15.916Z,71.50
2018-02-01T07:32:45.238Z,72.20
2018-02-01T07:35:13.878Z,72.00
2018-02-01T07:37:41.602Z,72.00
2018-02-01T07:40:09.103Z,72.40
2018-02-01T07:42:37.389Z,72.90
2018-02-01T07:45:04.899Z,72.90
2018-02-01T07:47:33.148Z,72.70
2018-02-01T07:50:00.636Z,73.40
2018-02-01T07:52:28.121Z,72.40
2018-02-01T07:54:55.619Z,71.90
2018-02-01T07:57:23.892Z,72.30
2018-02-01T07:59:51.481Z,72.40
2018-02-01T08:02:18.964Z,73.50
2018-02-01T08:04:46.510Z,73.50
2018-02-01T08:07:13.991Z,74.00
2018-02-01T08:09:42.295Z,74.80
2018-02-01T08:12:21.390Z,74.50
2018-02-01T08:14:49.179Z,74.40
2018-02-01T08:17:17.032Z,74.40
2018-02-01T08:19:45.083Z,73.70
2018-02-01T08:22:13.166Z,73.40
2018-02-01T08:24:41.926Z,73.40
2018-02-01T08:27:10.151Z,73.40
2018-02-01T08:29:39.172Z,72.60
2018-02-01T08:32:07.672Z,72.60
2018-02-01T08:34:36.241Z,73.00
2018-02-01T08:37:03.901Z,71.90
2018-02-01T08:39:31.547Z,71.90
2018-02-01T08:42:01.642Z,72.10
2018-02-01T08:44:29.191Z,71.60
2018-02-01T08:46:56.877Z,72.40
2018-02-01T08:49:25.186Z,71.60
2018-02-01T08:51:53.510Z,71.60
2018-02-01T08:54:21.943Z,72.50
2018-02-01T08:56:49.505Z,72.60
2018-02-01T08:59:17.041Z,72.10
2018-02-01T09:01:44.610Z,72.70
2018-02-01T09:04:12.150Z,72.70
2018-02-01T09:06:39.715Z,72.30
2018-02-01T09:09:08.048Z,71.50
2018-02-01T09:11:36.445Z,71.80
2018-02-01T09:14:04.031Z,71.90
2018-02-01T09:16:57.255Z,71.90
2018-02-01T09:19:24.818Z,71.90
2018-02-01T09:21:52.331Z,71.40
2018-02-01T09:24:19.934Z,72.20
2018-02-01T09:26:47.662Z,72.60
2018-02-01T09:29:26.896Z,72.30
2018-02-01T09:31:56.056Z,72.30
2018-02-01T09:34:23.635Z,72.40
2018-02-01T09:36:51.230Z,71.70
2018-02-01T09:39:18.936Z,73.00
2018-02-01T09:41:46.473Z,72.80
2018-02-01T09:44:14.073Z,73.90
2018-02-01T09:46:41.650Z,73.50
2018-02-01T09:49:09.156Z,73.60
2018-02-01T09:51:36.910Z,75.00
2018-02-01T09:54:04.461Z,74.10
2018-02-01T09:56:32.043Z,74.70
2018-02-01T09:58:59.535Z,75.20
2018-02-01T10:01:27.104Z,75.40
2018-02-01T10:03:54.675Z,75.10
2018-02-01T10:06:22.259Z,75.00
2018-02-01T10:08:49.935Z,74.80
2018-02-01T10:11:17.645Z,74.80
2018-02-01T10:13:45.199Z,74.90
2018-02-01T10:16:12.737Z,75.00
2018-02-01T10:18:40.324Z,74.40
2018-02-01T10:21:08.744Z,74.70
2018-02-01T10:23:36.445Z,74.80
2018-02-01T10:26:04.022Z,75.60
2018-02-01T10:28:31.565Z,75.30
2018-02-01T10:30:59.106Z,75.10
2018-02-01T10:33:26.649Z,75.10
2018-02-01T10:35:54.992Z,73.00
2018-02-01T10:41:05.236Z,71.80
2018-02-01T10:43:32.788Z,72.20
2018-02-01T10:46:00.328Z,72.10
2018-02-01T10:48:27.928Z,72.40
2018-02-01T10:50:55.473Z,71.20
2018-02-01T10:53:23.030Z,71.60
2018-02-01T10:55:50.577Z,71.90
2018-02-01T10:58:18.166Z,71.90
2018-02-01T11:00:45.688Z,72.60
2018-02-01T11:03:13.241Z,72.50
2018-02-01T11:05:41.542Z,72.30
2018-02-01T11:08:09.909Z,72.30
2018-02-01T11:10:37.692Z,72.50
2018-02-01T11:13:05.224Z,73.00
2018-02-01T11:15:33.549Z,72.40
2018-02-01T11:18:01.050Z,72.60
2018-02-01T11:20:28.671Z,72.10
2018-02-01T11:22:57.042Z,72.50
2018-02-01T11:25:25.326Z,72.40
2018-02-01T11:27:52.888Z,72.70
2018-02-01T11:30:21.221Z,73.40
2018-02-01T11:32:48.801Z,73.60
2018-02-01T11:35:16.559Z,73.80
2018-02-01T11:37:44.854Z,73.10
2018-02-01T11:40:13.163Z,73.20
2018-02-01T11:42:40.701Z,73.40
2018-02-01T11:45:08.246Z,73.50
2018-02-01T11:47:35.781Z,73.00
2018-02-01T11:50:03.681Z,73.00
2018-02-01T11:52:31.457Z,72.80
2018-02-01T11:54:58.985Z,72.60
2018-02-01T11:57:26.509Z,72.60
2018-02-01T11:59:54.008Z,72.40
2018-02-01T12:02:21.742Z,72.30
2018-02-01T12:04:50.049Z,72.00
2018-02-01T12:07:17.716Z,72.10
2018-02-01T12:09:46.026Z,72.30
2018-02-01T12:12:14.364Z,71.90
2018-02-01T12:14:41.911Z,71.90
2018-02-01T12:17:10.319Z,72.30
2018-02-01T12:19:38.649Z,72.80
2018-02-01T12:22:06.186Z,72.80
2018-02-01T12:24:33.739Z,72.70
2018-02-01T12:27:01.327Z,72.60
2018-02-01T12:29:28.926Z,72.20
2018-02-01T12:31:56.652Z,72.30
2018-02-01T12:34:25.042Z,72.10
2018-02-01T12:36:53.453Z,72.00
2018-02-01T12:39:21.038Z,72.10
2018-02-01T12:41:48.683Z,72.20
2018-02-01T12:44:18.403Z,72.20
2018-02-01T12:46:46.184Z,72.50
2018-02-01T12:49:14.535Z,72.00
2018-02-01T12:51:45.307Z,71.50
2018-02-01T12:54:12.840Z,71.50
2018-02-01T12:56:40.386Z,72.00
2018-02-01T12:59:08.725Z,70.50
2018-02-01T13:01:36.275Z,70.60
2018-02-01T13:04:04.787Z,71.10
2018-02-01T13:06:33.246Z,70.30
2018-02-01T13:09:01.644Z,70.60
2018-02-01T13:11:29.178Z,70.60
2018-02-01T13:13:57.992Z,71.20
2018-02-01T13:16:27.424Z,71.80
2018-02-01T13:18:55.747Z,72.40
2018-02-01T13:21:23.545Z,72.50
2018-02-01T13:23:51.206Z,72.30
2018-02-01T13:26:18.823Z,71.80
2018-02-01T13:28:46.992Z,71.40
2018-02-01T13:31:14.551Z,71.20
2018-02-01T13:33:42.092Z,71.60
2018-02-01T13:36:10.277Z,71.70
2018-02-01T13:38:37.901Z,71.70
2018-02-01T13:41:06.183Z,72.10
2018-02-01T13:43:34.978Z,72.20
2018-02-01T13:46:02.618Z,72.20
2018-02-01T13:48:30.993Z,72.40
2018-02-01T13:50:58.552Z,73.30
2018-02-01T13:53:26.375Z,72.50
2018-02-01T13:55:54.097Z,72.10
2018-02-01T13:58:21.823Z,72.40
2018-02-01T14:00:50.435Z,72.00
2018-02-01T14:03:18.209Z,72.50
2018-02-01T14:05:45.768Z,72.30
2018-02-01T14:08:15.016Z,71.60
2018-02-01T14:10:42.580Z,71.70
2018-02-01T14:13:10.899Z,72.00
2018-02-01T14:15:38.498Z,72.20
2018-02-01T14:18:06.059Z,72.40
2018-02-01T14:20:33.583Z,72.70
2018-02-01T14:23:01.121Z,73.20
2018-02-01T14:25:29.440Z,72.20
2018-02-01T14:27:57.894Z,72.50
2018-02-01T14:30:27.211Z,73.10
2018-02-01T14:32:54.759Z,73.20
2018-02-01T14:35:22.293Z,73.50
2018-02-01T14:37:49.861Z,73.70
2018-02-01T14:40:17.356Z,73.40
2018-02-01T14:42:44.916Z,73.50
2018-02-01T14:45:13.170Z,73.00
2018-02-01T14:47:41.426Z,73.00
2018-02-01T14:50:09.646Z,73.40
2018-02-01T14:52:37.334Z,73.40
2018-02-01T14:55:05.608Z,73.00
2018-02-01T14:57:33.093Z,73.10
2018-02-01T15:00:00.575Z,73.50
2018-02-01T15:02:28.054Z,73.00
2018-02-01T15:04:55.571Z,73.30
2018-02-01T15:07:23.060Z,73.40
2018-02-01T15:09:50.575Z,73.30
2018-02-01T15:12:18.085Z,73.50
2018-02-01T15:14:45.601Z,73.40
2018-02-01T15:17:13.120Z,73.90
2018-02-01T15:19:41.372Z,73.70
2018-02-01T15:22:08.851Z,73.80
2018-02-01T15:24:36.452Z,73.40
2018-02-01T15:27:03.940Z,73.50
2018-02-01T15:29:31.564Z,74.10
2018-02-01T15:31:59.804Z,74.30
2018-02-01T15:34:27.291Z,74.50
2018-02-01T15:36:55.658Z,73.60
2018-02-01T15:39:23.248Z,73.60
2018-02-01T15:41:50.913Z,73.40
2018-02-01T15:44:19.158Z,74.20
2018-02-01T15:46:46.729Z,74.30
2018-02-01T15:49:14.227Z,74.40
2018-02-01T15:51:41.710Z,73.20
2018-02-01T15:54:09.288Z,73.20
2018-02-01T15:56:36.873Z,73.10
2018-02-01T15:59:04.400Z,73.10
2018-02-01T16:01:31.880Z,73.30
2018-02-01T16:04:00.218Z,73.30
2018-02-01T16:06:27.712Z,73.40
2018-02-01T16:08:56.115Z,73.00
2018-02-01T16:11:24.091Z,73.40
2018-02-01T16:13:51.576Z,73.40
2018-02-01T16:16:19.070Z,73.20
2018-02-01T16:18:46.560Z,73.50
2018-02-01T16:21:14.085Z,73.80
2018-02-01T16:23:41.585Z,74.00
2018-02-01T16:26:09.833Z,74.00
2018-02-01T16:28:37.382Z,74.10
2018-02-01T16:31:04.988Z,74.00
2018-02-01T16:33:32.556Z,73.80
2018-02-01T16:36:00.069Z,73.40
2018-02-01T16:38:27.593Z,73.60
2018-02-01T16:40:55.859Z,73.00
2018-02-01T16:43:24.471Z,72.90
2018-02-01T16:45:52.105Z,72.90
2018-02-01T16:48:20.347Z,73.60
2018-02-01T16:50:47.864Z,73.60
2018-02-01T16:53:15.380Z,73.50
2018-02-01T16:55:42.935Z,73.40
2018-02-01T16:58:10.524Z,72.40
2018-02-01T17:00:38.107Z,72.40
2018-02-01T17:03:05.575Z,72.60
2018-02-01T17:05:33.082Z,73.00
2018-02-01T17:08:01.342Z,72.50
2018-02-01T17:10:28.983Z,72.50
2018-02-01T17:12:57.395Z,71.50
2018-02-01T17:15:24.896Z,71.50
2018-02-01T17:17:53.228Z,70.70
2018-02-01T17:20:20.747Z,71.30
2018-02-01T17:22:48.237Z,71.20
2018-02-01T17:25:16.513Z,69.60
2018-02-01T17:27:44.058Z,69.60
2018-02-01T17:30:11.683Z,68.80
2018-02-01T17:32:39.213Z,68.30
2018-02-01T17:35:06.705Z,68.20
2018-02-01T17:37:34.194Z,68.20
2018-02-01T17:40:01.724Z,67.70
2018-02-01T17:42:29.980Z,65.70
2018-02-01T17:44:57.572Z,65.80
2018-02-01T17:47:25.046Z,66.50
2018-02-01T17:49:52.556Z,66.70
2018-02-01T17:52:20.033Z,66.70
2018-02-01T17:54:47.548Z,66.50
2018-02-01T17:57:15.796Z,66.10
2018-02-01T17:59:43.299Z,66.20
2018-02-01T18:02:10.875Z,66.20
2018-02-01T18:04:38.431Z,66.20
2018-02-01T18:07:05.965Z,66.20
2018-02-01T18:09:33.472Z,66.40
2018-02-01T18:12:01.748Z,67.20
2018-02-01T18:14:29.261Z,67.20
2018-02-01T18:16:57.509Z,66.50
2018-02-01T18:19:24.997Z,66.70
2018-02-01T18:21:52.490Z,66.80
2018-02-01T18:24:19.991Z,66.80
2018-02-01T18:26:47.482Z,67.30
2018-02-01T18:29:14.955Z,67.40
2018-02-01T18:31:43.131Z,66.30
2018-02-01T18:34:10.769Z,66.10
2018-02-01T18:36:42.053Z,66.60
2018-02-01T18:39:09.615Z,66.70
2018-02-01T18:41:37.301Z,66.50
2018-02-01T18:44:05.598Z,67.70
2018-02-01T18:46:33.908Z,68.80
2018-02-01T18:49:02.196Z,69.60
2018-02-01T18:51:29.745Z,69.60
2018-02-01T18:53:57.309Z,69.50
2018-02-01T18:56:24.783Z,70.00
2018-02-01T18:58:53.185Z,69.80
2018-02-01T19:01:20.690Z,70.00
2018-02-01T19:03:48.177Z,70.00
2018-02-01T19:06:15.712Z,69.90
2018-02-01T19:08:43.213Z,69.90
2018-02-01T19:11:11.480Z,69.80
2018-02-01T19:13:38.966Z,69.70
2018-02-01T19:16:06.454Z,70.10
2018-02-01T19:18:34.019Z,70.50
2018-02-01T19:21:02.317Z,69.30
2018-02-01T19:23:29.813Z,69.40
2018-02-01T19:25:57.339Z,69.20
2018-02-01T19:28:25.635Z,69.10
2018-02-01T19:30:53.174Z,69.10
2018-02-01T19:33:20.664Z,68.60
2018-02-01T19:35:48.164Z,68.30
2018-02-01T19:38:15.659Z,68.30
2018-02-01T19:40:43.309Z,67.90
2018-02-01T19:43:11.315Z,68.00
2018-02-01T19:45:38.800Z,67.90
2018-02-01T19:48:06.303Z,67.80
2018-02-01T19:50:34.589Z,67.50
2018-02-01T19:53:02.165Z,67.50
2018-02-01T19:55:30.444Z,67.00
2018-02-01T19:57:57.946Z,67.10
2018-02-01T20:00:25.431Z,67.20
2018-02-01T20:02:52.938Z,67.10
2018-02-01T20:05:20.445Z,67.30
2018-02-01T20:07:49.126Z,66.70
2018-02-01T20:10:16.715Z,66.70
2018-02-01T20:12:45.145Z,67.70
2018-02-01T20:15:12.654Z,67.80
2018-02-01T20:17:40.918Z,67.40
2018-02-01T20:20:08.584Z,67.60
2018-02-01T20:22:36.111Z,67.90
2018-02-01T20:25:03.617Z,68.00
2018-02-01T20:27:31.900Z,68.60
2018-02-01T20:30:00.148Z,68.20
2018-02-01T20:32:27.732Z,68.70
2018-02-01T20:34:55.302Z,69.10
2018-02-01T20:37:22.777Z,68.80
2018-02-01T20:39:50.299Z,68.30
2018-02-01T20:42:17.950Z,68.60
2018-02-01T20:44:45.452Z,68.60
2018-02-01T20:47:12.974Z,68.50
2018-02-01T20:49:40.633Z,68.30
2018-02-01T20:52:09.128Z,68.20
2018-02-01T20:54:36.618Z,67.70
2018-02-01T20:57:04.129Z,67.80
2018-02-01T20:59:32.507Z,68.40
2018-02-01T21:02:00.743Z,68.40
2018-02-01T21:04:28.335Z,68.40
2018-02-01T21:06:55.876Z,68.50
2018-02-01T21:09:23.386Z,68.70
2018-02-01T21:11:51.059Z,68.90
2018-02-01T21:14:19.299Z,68.90
2018-02-01T21:16:47.582Z,69.20
2018-02-01T21:19:15.846Z,69.30
2018-02-01T21:21:44.094Z,69.00
2018-02-01T21:24:12.252Z,69.30
2018-02-01T21:26:39.781Z,69.00
2018-02-01T21:29:08.021Z,69.50
2018-02-01T21:31:36.301Z,69.70
2018-02-01T21:34:03.805Z,69.80
2018-02-01T21:36:31.363Z,69.70
2018-02-01T21:38:58.993Z,69.10
2018-02-01T21:41:27.269Z,69.20
2018-02-01T21:43:54.841Z,69.50
2018-02-01T21:46:23.266Z,69.60
2018-02-01T21:48:51.585Z,69.20
2018-02-01T21:51:19.065Z,69.40
2018-02-01T21:53:47.337Z,69.10
2018-02-01T21:56:14.872Z,69.10
2018-02-01T21:58:43.137Z,68.40
2018-02-01T22:01:10.701Z,68.50
2018-02-01T22:03:38.233Z,68.40
2018-02-01T22:06:05.719Z,68.10
2018-02-01T22:08:33.259Z,68.20
2018-02-01T22:11:02.123Z,68.00
2018-02-01T22:13:29.631Z,68.10
2018-02-01T22:15:57.229Z,67.90
2018-02-01T22:18:25.467Z,67.50
2018-02-01T22:20:52.969Z,67.50
2018-02-01T22:23:21.211Z,67.70
2018-02-01T22:25:49.528Z,67.30
2018-02-01T22:28:17.018Z,67.30
2018-02-01T22:30:45.354Z,67.90
2018-02-01T22:33:12.899Z,67.90
2018-02-01T22:35:41.261Z,67.90
2018-02-01T22:38:08.747Z,67.90
2018-02-01T22:40:36.240Z,68.10
2018-02-01T22:43:03.830Z,68.20
2018-02-01T22:45:31.414Z,68.10
2018-02-01T22:47:58.987Z,68.50
2018-02-01T22:50:26.600Z,68.10
2018-02-01T22:52:54.903Z,67.90
2018-02-01T22:55:22.403Z,67.90
2018-02-01T22:57:50.729Z,67.90
2018-02-01T23:00:18.241Z,67.80
2018-02-01T23:02:45.714Z,67.80
2018-02-01T23:05:13.176Z,67.50
2018-02-01T23:07:40.667Z,67.90
2018-02-01T23:10:08.155Z,67.60
2018-02-01T23:12:35.634Z,67.60
2018-02-01T23:15:03.894Z,67.10
2018-02-01T23:17:31.426Z,67.20
2018-02-01T23:19:58.917Z,67.10
2018-02-01T23:22:26.385Z,67.00
2018-02-01T23:24:53.874Z,66.80
2018-02-01T23:27:21.373Z,66.60
2018-02-01T23:29:48.893Z,66.20
2018-02-01T23:32:16.381Z,66.50
2018-02-01T23:34:43.842Z,66.30
2018-02-01T23:37:12.024Z,66.60
2018-02-01T23:39:39.487Z,66.80
2018-02-01T23:42:06.973Z,66.80
2018-02-01T23:44:34.439Z,66.80
2018-02-01T23:47:02.953Z,67.10
2018-02-01T23:49:31.202Z,67.30
2018-02-01T23:51:58.710Z,67.30
2018-02-01T23:54:26.205Z,67.40
2018-02-01T23:56:54.452Z,67.20
2018-02-01T23:59:21.992Z,67.10
